Chaparral, New Mexico
Current Conditions -  °F | °C
As of 3:58 PM on Tuesday 27 Jan 2015 (Local Time) from KBIF Reporting Station
Few Clouds Few Clouds  
Wind Chill: 66°   Ceiling: Unl
Heat Index: 66°   Visibility: 10mi
Dew Point: 39°   Wind: 3mph
Humidity: 37%   Direction: NA
Pressure: 30.21"   Gusts: NA
Location:  32.03°N, 106.4°W
Report Text: KBIF 272258Z VRB03KT 10SM FEW250 19/04 A3021 RMK AO2A SLP197 T01890040 $
Loading
Personal Weather Stations






























Interactive Weather Map New forecast layout! Learn more

10-Day Weather Forecast

Advertisements
Track Severe Weather on mobile